createdAt,value
2024-03-09T00:00:41.976Z,61.76
2024-03-09T00:03:10.660Z,61.93
2024-03-09T00:05:41.829Z,62.70
2024-03-09T00:08:11.166Z,62.79
2024-03-09T00:10:39.049Z,62.84
2024-03-09T00:13:06.149Z,62.82
2024-03-09T00:15:33.659Z,62.71
2024-03-09T00:18:00.717Z,63.30
2024-03-09T00:20:35.632Z,63.39
2024-03-09T00:23:07.407Z,63.17
2024-03-09T00:25:35.567Z,63.19
2024-03-09T00:28:02.649Z,63.25
2024-03-09T00:30:33.104Z,63.06
2024-03-09T00:33:01.809Z,63.75
2024-03-09T00:35:30.978Z,64.14
2024-03-09T00:38:00.321Z,63.88
2024-03-09T00:40:32.079Z,63.58
2024-03-09T00:43:07.231Z,63.54
2024-03-09T00:45:34.710Z,63.68
2024-03-09T00:48:01.937Z,63.81
2024-03-09T00:50:29.199Z,63.96
2024-03-09T00:52:56.701Z,64.06
2024-03-09T00:55:24.314Z,63.96
2024-03-09T00:57:52.239Z,64.14
2024-03-09T01:00:21.209Z,63.68
2024-03-09T01:02:50.387Z,63.37
2024-03-09T01:05:20.944Z,63.53
2024-03-09T01:07:48.134Z,63.38
2024-03-09T01:10:15.122Z,63.24
2024-03-09T01:12:42.588Z,63.33
2024-03-09T01:15:14.697Z,63.30
2024-03-09T01:17:41.717Z,63.46
2024-03-09T01:20:10.279Z,63.33
2024-03-09T01:22:38.646Z,63.60
2024-03-09T01:25:07.272Z,64.16
2024-03-09T01:27:34.579Z,63.81
2024-03-09T01:30:02.193Z,63.75
2024-03-09T01:32:29.825Z,63.68
2024-03-09T01:34:57.526Z,63.84
2024-03-09T01:37:25.142Z,63.41
2024-03-09T01:39:52.664Z,63.40
2024-03-09T01:42:20.171Z,63.59
2024-03-09T01:44:50.615Z,63.38
2024-03-09T01:47:27.386Z,63.61
2024-03-09T01:49:58.165Z,63.48
2024-03-09T01:52:33.384Z,63.70
2024-03-09T01:55:04.147Z,63.61
2024-03-09T01:57:31.440Z,63.61
2024-03-09T01:59:58.381Z,63.47
2024-03-09T02:02:25.787Z,63.85
2024-03-09T02:04:52.912Z,64.05
2024-03-09T02:07:20.272Z,63.86
2024-03-09T02:09:49.294Z,64.02
2024-03-09T02:12:18.224Z,64.00
2024-03-09T02:14:46.061Z,64.03
2024-03-09T02:17:13.796Z,64.22
2024-03-09T02:19:42.151Z,64.00
2024-03-09T02:22:17.366Z,63.94
2024-03-09T02:24:56.037Z,64.24
2024-03-09T02:27:26.794Z,64.09
2024-03-09T02:29:54.188Z,64.53
2024-03-09T02:32:22.617Z,65.10
2024-03-09T02:34:50.051Z,65.33
2024-03-09T02:37:20.856Z,65.00
2024-03-09T02:39:48.180Z,65.14
2024-03-09T02:42:15.381Z,64.54
2024-03-09T02:44:43.133Z,65.15
2024-03-09T02:47:11.416Z,64.59
2024-03-09T02:49:40.132Z,64.68
2024-03-09T02:52:07.590Z,65.57
2024-03-09T02:54:36.998Z,64.70
2024-03-09T02:57:07.513Z,65.51
2024-03-09T02:59:36.254Z,65.43
2024-03-09T03:02:04.262Z,65.22
2024-03-09T03:04:31.167Z,65.15
2024-03-09T03:06:58.510Z,65.29
2024-03-09T03:09:25.404Z,65.54
2024-03-09T03:11:53.203Z,65.17
2024-03-09T03:14:21.427Z,65.27
2024-03-09T03:16:49.015Z,65.88
2024-03-09T03:19:15.948Z,65.60
2024-03-09T03:21:42.845Z,65.74
2024-03-09T03:24:14.295Z,65.82
2024-03-09T03:26:41.253Z,65.71
2024-03-09T03:29:08.999Z,65.71
2024-03-09T03:31:39.316Z,65.49
2024-03-09T03:34:06.944Z,66.07
2024-03-09T03:36:34.300Z,66.43
2024-03-09T03:39:06.022Z,66.58
2024-03-09T03:41:32.992Z,66.68
2024-03-09T03:44:00.013Z,66.41
2024-03-09T03:46:27.636Z,66.46
2024-03-09T03:48:54.751Z,66.57
2024-03-09T03:51:21.619Z,66.46
2024-03-09T03:53:48.598Z,66.56
2024-03-09T03:56:15.686Z,66.81
2024-03-09T03:58:43.608Z,66.70
2024-03-09T04:01:11.297Z,66.79
2024-03-09T04:03:39.281Z,66.86
2024-03-09T04:06:07.880Z,67.03
2024-03-09T04:08:35.456Z,66.84
2024-03-09T04:11:04.728Z,66.99
2024-03-09T04:13:32.557Z,66.92
2024-03-09T04:16:02.325Z,67.02
2024-03-09T04:18:34.195Z,66.81
2024-03-09T04:21:03.666Z,66.95
2024-03-09T04:23:31.322Z,66.91
2024-03-09T04:25:58.225Z,67.33
2024-03-09T04:28:29.143Z,67.35
2024-03-09T04:30:57.884Z,67.07
2024-03-09T04:33:25.736Z,67.11
2024-03-09T04:35:54.114Z,67.24
2024-03-09T04:38:21.488Z,67.01
2024-03-09T04:40:50.678Z,67.06
2024-03-09T04:43:19.156Z,66.87
2024-03-09T04:45:47.210Z,66.75
2024-03-09T04:48:17.700Z,66.98
2024-03-09T04:50:48.713Z,67.10
2024-03-09T04:53:20.860Z,66.97
2024-03-09T04:55:53.033Z,67.52
2024-03-09T04:58:20.731Z,67.62
2024-03-09T05:00:47.882Z,67.33
2024-03-09T05:03:15.995Z,67.71
2024-03-09T05:05:44.300Z,67.46
2024-03-09T05:08:11.827Z,67.32
2024-03-09T05:10:39.070Z,66.77
2024-03-09T05:13:08.050Z,67.13
2024-03-09T05:15:36.583Z,67.17
2024-03-09T05:18:09.066Z,67.19
2024-03-09T05:20:36.841Z,67.35
2024-03-09T05:23:04.857Z,67.46
2024-03-09T05:25:32.133Z,67.46
2024-03-09T05:27:59.275Z,67.17
2024-03-09T05:30:29.730Z,67.34
2024-03-09T05:33:07.905Z,67.29
2024-03-09T05:35:35.603Z,67.17
2024-03-09T05:38:07.018Z,67.20
2024-03-09T05:40:36.088Z,67.44
2024-03-09T05:43:12.822Z,67.25
2024-03-09T05:45:42.404Z,68.01
2024-03-09T05:48:10.313Z,67.92
2024-03-09T05:50:39.069Z,67.66
2024-03-09T05:53:06.912Z,67.84
2024-03-09T05:55:34.505Z,68.44
2024-03-09T05:58:01.560Z,68.55
2024-03-09T06:00:31.390Z,68.20
2024-03-09T06:03:03.415Z,68.12
2024-03-09T06:05:32.091Z,67.78
2024-03-09T06:08:00.023Z,67.95
2024-03-09T06:10:27.557Z,67.85
2024-03-09T06:12:55.648Z,67.49
2024-03-09T06:15:24.622Z,67.91
2024-03-09T06:17:55.380Z,67.50
2024-03-09T06:20:22.911Z,66.97
2024-03-09T06:22:49.949Z,66.61
2024-03-09T06:25:25.204Z,66.43
2024-03-09T06:27:54.162Z,66.20
2024-03-09T06:30:24.259Z,65.96
2024-03-09T06:32:52.383Z,66.47
2024-03-09T06:35:26.815Z,66.77
2024-03-09T06:38:02.001Z,66.69
2024-03-09T06:40:34.564Z,65.80
2024-03-09T06:43:04.697Z,65.88
2024-03-09T06:45:31.697Z,64.70
2024-03-09T06:47:59.735Z,63.67
2024-03-09T06:50:33.356Z,62.82
2024-03-09T06:53:01.638Z,61.77
2024-03-09T06:55:30.748Z,60.53
2024-03-09T06:58:04.296Z,60.51
2024-03-09T07:00:36.885Z,59.68
2024-03-09T07:03:06.100Z,59.74
2024-03-09T07:05:35.313Z,58.59
2024-03-09T07:08:04.494Z,58.13
2024-03-09T07:10:33.407Z,57.88
2024-03-09T07:13:00.761Z,57.88
2024-03-09T07:15:30.527Z,57.02
2024-03-09T07:17:57.957Z,56.60
2024-03-09T07:20:25.310Z,56.81
2024-03-09T07:23:01.874Z,55.37
2024-03-09T07:25:29.249Z,55.47
2024-03-09T07:27:59.109Z,54.86
2024-03-09T07:30:27.131Z,54.51
2024-03-09T07:32:57.639Z,53.94
2024-03-09T07:35:30.738Z,53.32
2024-03-09T07:38:01.765Z,51.74
2024-03-09T07:40:37.982Z,50.98
2024-03-09T07:43:07.048Z,50.21
2024-03-09T07:45:35.113Z,50.14
2024-03-09T07:48:04.692Z,50.53
2024-03-09T07:50:33.981Z,50.71
2024-03-09T07:53:01.795Z,48.70
2024-03-09T07:55:30.273Z,48.30
2024-03-09T07:58:10.109Z,47.84
2024-03-09T08:00:46.672Z,47.79
2024-03-09T08:03:14.844Z,47.84
2024-03-09T08:05:42.794Z,46.37
2024-03-09T08:08:13.816Z,45.55
2024-03-09T08:10:48.367Z,46.67
2024-03-09T08:13:18.021Z,46.20
2024-03-09T08:15:45.709Z,47.45
2024-03-09T08:18:12.762Z,47.28
2024-03-09T08:20:40.044Z,46.87
2024-03-09T08:23:08.099Z,46.71
2024-03-09T08:25:35.399Z,46.99
2024-03-09T08:28:02.375Z,47.55
2024-03-09T08:30:29.234Z,47.42
2024-03-09T08:32:59.842Z,48.30
2024-03-09T08:35:32.603Z,49.47
2024-03-09T08:37:59.689Z,49.14
2024-03-09T08:40:32.328Z,49.25
2024-03-09T08:42:59.986Z,47.59
2024-03-09T08:45:28.658Z,46.93
2024-03-09T08:47:55.787Z,46.55
2024-03-09T08:50:24.937Z,45.72
2024-03-09T08:52:54.231Z,44.97
2024-03-09T08:55:21.294Z,45.32
2024-03-09T08:57:50.724Z,44.13
2024-03-09T09:00:26.083Z,42.72
2024-03-09T09:02:57.449Z,43.28
2024-03-09T09:05:28.060Z,42.99
2024-03-09T09:07:56.410Z,41.88
2024-03-09T09:10:23.962Z,41.59
2024-03-09T09:12:51.115Z,42.19
2024-03-09T09:15:18.566Z,42.00
2024-03-09T09:17:46.156Z,41.25
2024-03-09T09:20:15.015Z,41.55
2024-03-09T09:22:50.713Z,41.53
2024-03-09T09:25:27.133Z,40.50
2024-03-09T09:27:57.779Z,41.01
2024-03-09T09:30:25.318Z,42.69
2024-03-09T09:32:52.350Z,42.32
2024-03-09T09:35:21.721Z,41.43
2024-03-09T09:37:48.713Z,41.47
2024-03-09T09:40:16.960Z,40.12
2024-03-09T09:42:44.908Z,39.98
2024-03-09T09:45:23.123Z,40.22
2024-03-09T09:47:50.709Z,40.86
2024-03-09T09:50:20.929Z,40.16
2024-03-09T09:52:50.682Z,40.28
2024-03-09T09:55:20.992Z,38.75
2024-03-09T09:57:48.341Z,39.41
2024-03-09T10:00:17.633Z,39.29
2024-03-09T10:02:46.226Z,39.73
2024-03-09T10:05:18.351Z,39.87
2024-03-09T10:08:08.288Z,40.02
2024-03-09T10:10:44.290Z,40.34
2024-03-09T10:13:14.374Z,40.11
2024-03-09T10:15:45.884Z,39.88
2024-03-09T10:18:14.393Z,39.85
2024-03-09T10:20:41.495Z,39.20
2024-03-09T10:23:13.219Z,38.64
2024-03-09T10:25:41.879Z,37.09
2024-03-09T10:28:12.929Z,36.63
2024-03-09T10:30:40.341Z,37.65
2024-03-09T10:33:17.686Z,37.17
2024-03-09T10:35:48.046Z,37.79
2024-03-09T10:38:19.957Z,36.55
2024-03-09T10:40:47.843Z,37.19
2024-03-09T10:43:16.033Z,35.93
2024-03-09T10:45:49.504Z,35.83
2024-03-09T10:48:16.820Z,34.92
2024-03-09T10:50:58.024Z,35.59
2024-03-09T10:53:51.967Z,34.03
2024-03-09T10:56:24.318Z,34.71
2024-03-09T10:58:54.625Z,32.99
2024-03-09T11:01:24.129Z,33.42
2024-03-09T11:03:51.700Z,33.11
2024-03-09T11:06:20.772Z,32.56
2024-03-09T11:08:50.523Z,31.75
2024-03-09T11:11:23.942Z,32.56
2024-03-09T11:13:55.202Z,31.92
2024-03-09T11:16:22.401Z,31.43
2024-03-09T11:18:57.737Z,31.29
2024-03-09T11:21:31.579Z,31.08
2024-03-09T11:24:01.123Z,31.71
2024-03-09T11:26:28.607Z,31.58
2024-03-09T11:28:59.683Z,30.91
2024-03-09T11:31:29.560Z,31.99
2024-03-09T11:34:23.347Z,31.73
2024-03-09T11:36:51.991Z,32.14
2024-03-09T11:39:24.598Z,31.72
2024-03-09T11:41:52.786Z,31.16
2024-03-09T11:44:30.836Z,31.03
2024-03-09T11:46:58.431Z,30.98
2024-03-09T11:49:28.409Z,29.50
2024-03-09T11:51:58.189Z,30.94
2024-03-09T11:54:27.570Z,30.69
2024-03-09T11:56:56.529Z,30.04
2024-03-09T11:59:24.360Z,29.63
2024-03-09T12:02:00.189Z,30.09
2024-03-09T12:04:34.146Z,30.32
2024-03-09T12:07:03.589Z,29.27
2024-03-09T12:09:31.055Z,28.94
2024-03-09T12:11:58.502Z,28.58
2024-03-09T12:14:25.632Z,27.65
2024-03-09T12:16:53.538Z,26.20
2024-03-09T12:19:21.947Z,27.15
2024-03-09T12:21:49.559Z,25.86
2024-03-09T12:24:16.551Z,26.60
2024-03-09T12:26:44.548Z,26.21
2024-03-09T12:29:15.408Z,24.81
2024-03-09T12:31:44.165Z,24.27
2024-03-09T12:34:15.007Z,23.41
2024-03-09T12:36:53.219Z,23.16
2024-03-09T12:39:20.716Z,24.24
2024-03-09T12:41:53.921Z,23.11
2024-03-09T12:44:23.064Z,22.74
2024-03-09T12:46:50.749Z,22.30
2024-03-09T12:49:20.060Z,22.76
2024-03-09T12:51:50.729Z,22.19
2024-03-09T12:54:20.328Z,20.81
2024-03-09T12:56:49.739Z,21.53
2024-03-09T12:59:25.010Z,22.10
2024-03-09T13:01:52.853Z,21.05
2024-03-09T13:04:26.620Z,21.32
2024-03-09T13:06:56.893Z,21.50
2024-03-09T13:09:31.699Z,22.11
2024-03-09T13:11:59.063Z,22.05
2024-03-09T13:14:26.285Z,21.61
2024-03-09T13:16:53.170Z,22.76
2024-03-09T13:19:21.797Z,22.79
2024-03-09T13:21:53.137Z,21.44
2024-03-09T13:24:24.311Z,21.01
2024-03-09T13:26:52.779Z,20.76
2024-03-09T13:29:22.364Z,21.08
2024-03-09T13:31:51.148Z,21.71
2024-03-09T13:34:18.403Z,21.97
2024-03-09T13:36:46.652Z,19.99
2024-03-09T13:39:17.346Z,18.99
2024-03-09T13:41:46.505Z,18.75
2024-03-09T13:44:14.543Z,18.54
2024-03-09T13:46:45.942Z,19.71
2024-03-09T13:49:16.078Z,20.45
2024-03-09T13:51:45.017Z,19.47
2024-03-09T13:54:12.855Z,19.02
2024-03-09T13:56:40.103Z,18.53
2024-03-09T13:59:14.664Z,18.73
2024-03-09T14:01:44.860Z,19.91
2024-03-09T14:04:14.120Z,19.44
2024-03-09T14:06:56.416Z,19.26
2024-03-09T14:09:31.808Z,19.61
2024-03-09T14:11:59.876Z,19.38
2024-03-09T14:14:27.330Z,19.02
2024-03-09T14:16:58.371Z,19.24
2024-03-09T14:19:25.693Z,18.36
2024-03-09T14:21:52.963Z,18.19
2024-03-09T14:24:20.871Z,18.21
2024-03-09T14:26:48.437Z,18.17
2024-03-09T14:29:18.256Z,18.18
2024-03-09T14:31:47.975Z,17.39
2024-03-09T14:34:15.450Z,18.38
2024-03-09T14:36:42.941Z,18.77
2024-03-09T14:39:18.212Z,18.86
2024-03-09T14:41:45.641Z,19.87
2024-03-09T14:44:14.405Z,20.53
2024-03-09T14:46:42.025Z,20.95
2024-03-09T14:49:10.933Z,22.41
2024-03-09T14:51:38.692Z,22.19
2024-03-09T14:54:05.824Z,21.79
2024-03-09T14:56:32.805Z,22.09
2024-03-09T14:59:06.032Z,22.29
2024-03-09T15:01:33.047Z,23.34
2024-03-09T15:03:59.898Z,25.08
2024-03-09T15:06:26.800Z,26.38
2024-03-09T15:08:58.765Z,27.26
2024-03-09T15:11:25.793Z,28.03
2024-03-09T15:13:54.875Z,27.75
2024-03-09T15:16:28.014Z,28.29
2024-03-09T15:18:55.867Z,28.35
2024-03-09T15:21:27.431Z,28.46
2024-03-09T15:23:59.454Z,28.80
2024-03-09T15:26:30.233Z,29.37
2024-03-09T15:28:59.091Z,29.98
2024-03-09T15:31:27.592Z,29.92
2024-03-09T15:33:55.880Z,31.00
2024-03-09T15:36:23.729Z,31.51
2024-03-09T15:38:52.842Z,32.52
2024-03-09T15:41:20.311Z,33.12
2024-03-09T15:43:49.616Z,33.05
2024-03-09T15:46:19.357Z,33.54
2024-03-09T15:48:47.824Z,33.77
2024-03-09T15:51:15.118Z,33.82
2024-03-09T15:53:42.976Z,34.31
2024-03-09T15:56:12.085Z,35.41
2024-03-09T15:58:42.049Z,35.16
2024-03-09T16:01:10.548Z,35.70
2024-03-09T16:03:39.201Z,35.24
2024-03-09T16:06:06.330Z,35.46
2024-03-09T16:08:34.544Z,35.84
2024-03-09T16:11:04.045Z,36.15
2024-03-09T16:13:34.449Z,36.05
2024-03-09T16:16:08.027Z,36.47
2024-03-09T16:18:35.603Z,36.33
2024-03-09T16:21:08.293Z,36.74
2024-03-09T16:23:37.879Z,36.50
2024-03-09T16:26:06.188Z,37.27
2024-03-09T16:28:36.956Z,37.63
2024-03-09T16:31:05.408Z,37.68
2024-03-09T16:33:33.650Z,38.03
2024-03-09T16:36:03.390Z,38.14
2024-03-09T16:38:31.111Z,38.15
2024-03-09T16:40:58.435Z,38.42
2024-03-09T16:43:31.481Z,39.19
2024-03-09T16:46:05.589Z,39.04
2024-03-09T16:48:35.796Z,39.79
2024-03-09T16:51:02.978Z,40.26
2024-03-09T16:53:33.949Z,40.80
2024-03-09T16:56:03.211Z,41.58
2024-03-09T16:58:30.576Z,41.59
2024-03-09T17:00:58.006Z,41.50
2024-03-09T17:03:24.991Z,42.43
2024-03-09T17:05:52.241Z,42.68
2024-03-09T17:08:21.447Z,43.25
2024-03-09T17:10:52.929Z,43.00
2024-03-09T17:13:23.633Z,43.32
2024-03-09T17:15:50.954Z,44.55
2024-03-09T17:18:22.296Z,44.55
2024-03-09T17:20:53.810Z,44.83
2024-03-09T17:23:22.722Z,44.93
2024-03-09T17:25:50.705Z,45.11
2024-03-09T17:28:21.517Z,45.54
2024-03-09T17:30:49.758Z,45.43
2024-03-09T17:33:17.219Z,45.90
2024-03-09T17:35:44.241Z,45.90
2024-03-09T17:38:11.943Z,45.80
2024-03-09T17:40:39.295Z,46.22
2024-03-09T17:43:06.315Z,45.66
2024-03-09T17:45:33.627Z,45.64
2024-03-09T17:48:00.693Z,45.84
2024-03-09T17:50:28.753Z,46.25
2024-03-09T17:52:59.127Z,46.11
2024-03-09T17:55:29.797Z,46.83
2024-03-09T17:58:01.366Z,46.46
2024-03-09T18:00:35.295Z,47.42
2024-03-09T18:03:03.348Z,47.10
2024-03-09T18:05:35.480Z,47.21
2024-03-09T18:08:11.892Z,47.81
2024-03-09T18:10:43.485Z,47.89
2024-03-09T18:13:13.006Z,47.54
2024-03-09T18:15:41.481Z,47.75
2024-03-09T18:18:14.821Z,47.84
2024-03-09T18:20:44.424Z,47.63
2024-03-09T18:23:12.766Z,48.11
2024-03-09T18:25:40.798Z,48.38
2024-03-09T18:28:08.795Z,47.95
2024-03-09T18:30:36.270Z,48.15
2024-03-09T18:33:07.645Z,48.19
2024-03-09T18:35:35.374Z,48.53
2024-03-09T18:38:03.929Z,48.20
2024-03-09T18:40:31.562Z,48.36
2024-03-09T18:43:00.086Z,48.21
2024-03-09T18:45:32.364Z,48.83
2024-03-09T18:47:59.455Z,49.28
2024-03-09T18:50:27.337Z,49.40
2024-03-09T18:52:59.794Z,49.41
2024-03-09T18:55:28.958Z,49.50
2024-03-09T18:57:56.445Z,49.66
2024-03-09T19:00:30.168Z,49.96
2024-03-09T19:02:57.851Z,50.39
2024-03-09T19:05:25.278Z,50.28
2024-03-09T19:07:57.115Z,49.98
2024-03-09T19:10:25.346Z,50.28
2024-03-09T19:12:52.808Z,49.85
2024-03-09T19:15:24.082Z,49.94
2024-03-09T19:17:52.601Z,50.27
2024-03-09T19:20:26.077Z,50.25
2024-03-09T19:22:54.715Z,50.51
2024-03-09T19:25:22.066Z,50.71
2024-03-09T19:27:49.289Z,50.93
2024-03-09T19:30:21.937Z,51.38
2024-03-09T19:32:51.603Z,51.13
2024-03-09T19:35:26.936Z,51.36
2024-03-09T19:37:58.326Z,51.42
2024-03-09T19:40:27.119Z,51.49
2024-03-09T19:42:55.495Z,51.86
2024-03-09T19:45:25.316Z,53.00
2024-03-09T19:47:53.269Z,51.86
2024-03-09T19:50:24.214Z,52.05
2024-03-09T19:52:52.256Z,52.04
2024-03-09T19:55:20.832Z,51.90
2024-03-09T19:57:49.912Z,51.61
2024-03-09T20:00:20.701Z,51.80
2024-03-09T20:02:57.597Z,52.00
2024-03-09T20:05:34.421Z,52.54
2024-03-09T20:08:02.534Z,53.08
2024-03-09T20:10:36.965Z,52.78
2024-03-09T20:13:04.325Z,52.70
2024-03-09T20:15:31.398Z,52.87
2024-03-09T20:17:59.658Z,53.38
2024-03-09T20:20:29.324Z,53.69
2024-03-09T20:22:58.069Z,53.91
2024-03-09T20:25:27.354Z,53.90
2024-03-09T20:27:56.068Z,54.24
2024-03-09T20:30:23.332Z,54.79
2024-03-09T20:32:52.026Z,54.42
2024-03-09T20:35:19.879Z,54.24
2024-03-09T20:37:48.858Z,54.47
2024-03-09T20:40:17.425Z,55.56
2024-03-09T20:42:52.956Z,55.79
2024-03-09T20:45:22.197Z,55.87
2024-03-09T20:47:50.495Z,56.52
2024-03-09T20:50:21.825Z,56.61
2024-03-09T20:52:59.052Z,57.08
2024-03-09T20:55:28.432Z,56.90
2024-03-09T20:57:55.896Z,56.98
2024-03-09T21:00:27.017Z,56.62
2024-03-09T21:02:54.430Z,57.45
2024-03-09T21:05:21.747Z,57.20
2024-03-09T21:07:48.988Z,57.46
2024-03-09T21:10:16.075Z,58.10
2024-03-09T21:12:47.310Z,58.15
2024-03-09T21:15:14.881Z,57.55
2024-03-09T21:17:42.365Z,57.01
2024-03-09T21:20:15.296Z,57.69
2024-03-09T21:22:42.963Z,57.40
2024-03-09T21:25:14.642Z,57.29
2024-03-09T21:27:45.552Z,57.41
2024-03-09T21:30:15.649Z,57.27
2024-03-09T21:32:46.083Z,57.32
2024-03-09T21:35:14.047Z,57.28
2024-03-09T21:37:44.950Z,57.38
2024-03-09T21:40:13.827Z,57.29
2024-03-09T21:42:42.185Z,58.05
2024-03-09T21:45:09.658Z,57.68
2024-03-09T21:47:36.901Z,57.76
2024-03-09T21:50:04.575Z,57.42
2024-03-09T21:52:32.226Z,57.60
2024-03-09T21:54:59.330Z,57.89
2024-03-09T21:57:26.387Z,57.75
2024-03-09T21:59:53.257Z,58.25
2024-03-09T22:02:20.317Z,57.97
2024-03-09T22:04:47.250Z,58.32
2024-03-09T22:07:14.321Z,58.14
2024-03-09T22:09:42.297Z,58.06
2024-03-09T22:12:11.993Z,58.31
2024-03-09T22:14:40.110Z,59.53
2024-03-09T22:17:07.420Z,59.14
2024-03-09T22:19:37.980Z,59.32
2024-03-09T22:22:05.061Z,59.20
2024-03-09T22:24:32.311Z,58.86
2024-03-09T22:26:59.208Z,58.84
2024-03-09T22:29:29.382Z,58.37
2024-03-09T22:31:57.866Z,58.25
2024-03-09T22:34:25.182Z,58.38
2024-03-09T22:36:52.102Z,58.70
2024-03-09T22:39:19.963Z,58.08
2024-03-09T22:41:47.636Z,58.07
2024-03-09T22:44:15.866Z,57.86
2024-03-09T22:46:42.826Z,57.72
2024-03-09T22:49:10.287Z,57.66
2024-03-09T22:51:37.622Z,57.71
2024-03-09T22:54:04.554Z,57.18
2024-03-09T22:56:32.511Z,57.15
2024-03-09T22:58:59.412Z,56.98
2024-03-09T23:01:26.842Z,57.61
2024-03-09T23:03:54.371Z,57.15
2024-03-09T23:06:21.627Z,57.14
2024-03-09T23:08:49.290Z,57.29
2024-03-09T23:11:19.090Z,57.18
2024-03-09T23:13:47.993Z,57.49
2024-03-09T23:16:15.700Z,57.44
2024-03-09T23:18:43.396Z,57.41
2024-03-09T23:21:10.934Z,57.47
2024-03-09T23:23:37.981Z,57.56
2024-03-09T23:26:05.256Z,57.52
2024-03-09T23:28:32.314Z,57.79
2024-03-09T23:31:00.184Z,57.53
2024-03-09T23:33:27.362Z,57.41
2024-03-09T23:35:54.305Z,57.43
2024-03-09T23:38:23.612Z,57.18
2024-03-09T23:40:51.168Z,57.88
2024-03-09T23:43:19.598Z,58.09
2024-03-09T23:45:47.069Z,57.61
2024-03-09T23:48:17.178Z,57.94
2024-03-09T23:50:44.226Z,57.58
2024-03-09T23:53:13.042Z,57.26
2024-03-09T23:55:41.404Z,57.06
2024-03-09T23:58:08.635Z,56.95
